Latest Weather Observations for Oenpelli Airport

IDD60801

Issued at 11:05 am CST Saturday 25 October 2014 (issued every 30 minutes, with the page automatically refreshed every 10 minutes)

About weather observations | Map of weather stations | Latest weather observations for NT | Other Formats
Station Details ID: 014310 Name: OENPELLI AIRPORT Lat: -12.33 Lon: 133.01 Height: 7.5 m
Data from the previous 72 hours. | See also: Recent months for locations in Northern Territory
Date/Time
CST
Temp
°C
App
Temp
°C
Dew
Point
Rel
Hum
%
Delta-T
°C
Wind Press
QNH
hPa
Press
MSL
hPa
Rain
since 9 am
mm
Dir
 
Spd
km/h
Gust
km/h
Spd
kts
Gust
kts
25/11:00am 33.2 30.7 6.5 19 14.5 SSE 9 15 5 8 1014.1 1014.0 0.0
25/10:30am 32.8 31.1 11.3 27 12.6 ENE 11 24 6 13 1014.6 1014.5 0.0
25/10:00am 33.2 32.2 13.3 30 12.0 ESE 11 22 6 12 1015.0 1014.9 0.0
25/09:30am 31.2 31.3 15.6 39 9.7 SE 9 19 5 10 1015.2 1015.1 0.0
25/09:00am 28.9 31.1 19.2 55 6.3 S 6 11 3 6 1015.5 1015.4 0.0
25/08:30am 28.1 31.0 19.9 61 5.4 W 4 9 2 5 1015.5 1015.4 0.0
25/08:00am 27.7 31.9 21.0 67 4.4 CALM 0 0 0 0 1015.4 1015.3 0.0
25/07:30am 25.6 29.6 20.6 74 3.3 CALM 0 0 0 0 1015.2 1015.1 0.0
25/07:00am 23.3 27.0 19.9 81 2.2 CALM 0 0 0 0 1014.8 1014.7 0.0
25/06:30am 23.2 27.1 20.3 84 1.9 CALM 0 0 0 0 1014.2 1014.1 0.0
25/06:00am 23.1 26.8 19.9 82 2.1 CALM 0 0 0 0 1014.0 1013.9 0.0
25/05:30am 23.9 27.5 19.8 78 2.6 CALM 0 0 0 0 1013.9 1013.8 0.0
25/05:00am 24.2 27.9 19.9 77 2.8 ENE 0 0 0 0 1013.5 1013.4 0.0
25/04:30am 24.9 28.0 20.2 75 3.1 NE 4 6 2 3 1013.2 1013.1 0.0
25/04:00am 25.4 27.6 20.4 74 3.3 ENE 9 13 5 7 1013.1 1013.0 0.0
25/03:30am 25.4 28.1 20.6 75 3.1 NE 7 17 4 9 1012.8 1012.7 0.0
25/03:00am 25.8 28.7 21.0 75 3.2 NE 7 11 4 6 1012.8 1012.7 0.0
25/02:30am 25.8 29.2 21.0 75 3.2 NNE 4 7 2 4 1013.1 1013.0 0.0
25/02:00am 26.0 28.9 21.0 74 3.3 NE 7 13 4 7 1013.3 1013.2 0.0
25/01:30am 26.5 28.4 21.3 73 3.4 ENE 13 20 7 11 1013.4 1013.3 0.0
25/01:00am 26.7 28.2 21.2 72 3.6 ENE 15 26 8 14 1013.5 1013.4 0.0
25/12:30am 26.4 28.5 20.9 72 3.6 ENE 11 15 6 8 1013.8 1013.7 0.0
25/12:00am 26.6 28.7 20.9 71 3.8 ENE 11 17 6 9 1013.9 1013.8 0.0
 
Date/Time
CST
Temp
°C
App
Temp
°C
Dew
Point
Rel
Hum
%
Delta-T
°C
Wind Press
QNH
hPa
Press
MSL
hPa
Rain
since 9 am
mm
Dir
 
Spd
km/h
Gust
km/h
Spd
kts
Gust
kts
24/11:30pm 26.6 27.8 20.7 70 3.9 NE 15 24 8 13 1013.7 1013.6 0.0
24/11:00pm 27.0 27.3 20.3 66 4.4 NE 19 33 10 18 1013.7 1013.6 0.0
24/10:30pm 26.9 28.1 20.0 66 4.5 NE 13 20 7 11 1013.6 1013.5 0.0
24/10:00pm 27.3 29.0 19.4 62 5.1 NE 9 15 5 8 1013.4 1013.3 0.0
24/09:30pm 26.7 28.7 18.8 62 5.1 NNW 6 9 3 5 1012.8 1012.7 0.0
24/09:00pm 27.4 27.7 18.7 59 5.6 NE 15 20 8 11 1012.1 1012.0 0.0
24/08:30pm 28.0 28.0 18.1 55 6.3 NE 15 20 8 11 1011.7 1011.6 0.0
24/08:00pm 28.6 29.4 18.1 53 6.7 NE 11 17 6 9 1011.2 1011.1 0.0
24/07:30pm 28.9 30.2 18.4 53 6.7 NNE 9 13 5 7 1010.8 1010.7 0.0
24/07:00pm 29.7 30.1 18.2 50 7.4 NNE 13 20 7 11 1010.3 1010.2 0.0
24/06:30pm 30.9 30.4 16.9 43 8.8 NNE 15 22 8 12 1009.8 1009.7 0.0
24/06:00pm 32.2 30.3 15.7 37 10.3 NNE 20 28 11 15 1009.4 1009.3 0.0
24/05:30pm 33.7 31.8 15.2 33 11.5 NE 19 30 10 16 1009.0 1008.9 0.0
24/05:00pm 34.9 33.0 15.3 31 12.3 NNE 19 26 10 14 1008.8 1008.7 0.0
24/04:30pm 35.9 34.3 12.8 25 14.0 NE 13 32 7 17 1008.6 1008.5 0.0
24/04:00pm 37.4 34.0 9.1 18 16.3 E 17 35 9 19 1008.8 1008.7 0.0
24/03:30pm 36.6 33.4 10.0 20 15.5 ENE 17 28 9 15 1009.0 1008.9 0.0
24/03:00pm 37.0 33.3 9.6 19 15.9 ESE 19 30 10 16 1009.4 1009.3 0.0
24/02:30pm 36.3 32.7 9.8 20 15.4 ENE 19 32 10 17 1009.6 1009.5 0.0
24/02:00pm 36.6 32.5 10.0 20 15.5 ENE 22 28 12 15 1010.0 1009.9 0.0
24/01:30pm 36.0 32.5 10.2 21 15.0 NE 19 28 10 15 1010.4 1010.3 0.0
24/01:00pm 35.3 33.0 11.7 24 14.0 NNE 15 28 8 15 1011.3 1011.2 0.0
24/12:30pm 35.0 32.2 12.6 26 13.5 E 19 33 10 18 1012.0 1011.9 0.0
24/12:00pm 34.3 31.7 12.0 25 13.3 E 17 28 9 15 1012.5 1012.4 0.0
24/11:30am 34.1 32.2 14.1 30 12.3 E 17 26 9 14 1013.0 1012.9 0.0
24/11:00am 33.7 32.4 15.7 34 11.3 ENE 17 28 9 15 1013.5 1013.4 0.0
24/10:30am 32.6 33.4 16.4 37 10.2 ENE 7 19 4 10 1013.9 1013.8 0.0
24/10:00am 31.5 32.0 17.4 43 9.0 E 11 24 6 13 1014.4 1014.3 0.0
24/09:30am 30.6 33.5 19.9 52 7.0 E 4 9 2 5 1014.7 1014.6 0.0
24/09:00am 29.1 31.5 20.0 58 6.0 E 7 13 4 7 1014.8 1014.7 0.0
24/08:30am 28.4 31.4 20.9 64 5.0 NE 6 15 3 8 1014.7 1014.6 0.0
24/08:00am 27.4 30.3 20.7 67 4.4 NE 6 9 3 5 1014.5 1014.4 0.0
24/07:30am 26.0 30.2 21.0 74 3.3 CALM 0 0 0 0 1014.4 1014.3 0.0
24/07:00am 23.6 27.1 20.3 82 2.1 WNW 2 6 1 3 1014.1 1014.0 0.0
24/06:30am 22.7 26.5 20.2 86 1.6 CALM 0 4 0 2 1013.8 1013.7 0.0
24/06:00am 22.4 26.4 20.5 89 1.2 CALM 0 4 0 2 1013.4 1013.3 0.0
24/05:30am 21.8 24.9 19.5 87 1.5 WNW 2 6 1 3 1013.1 1013.0 0.0
24/05:00am 22.4 26.0 19.8 85 1.7 CALM 0 2 0 1 1012.9 1012.8 0.0
24/04:30am 22.2 25.2 19.2 83 1.9 WNW 2 6 1 3 1012.6 1012.5 0.0
24/04:00am 22.8 26.3 19.6 82 2.0 CALM 0 0 0 0 1012.5 1012.4 0.0
24/03:30am 22.5 25.0 19.1 81 2.2 WNW 4 6 2 3 1012.3 1012.2 0.0
24/03:00am 24.2 27.3 20.3 79 2.5 WNW 4 6 2 3 1012.4 1012.3 0.0
24/02:30am 23.9 27.4 19.6 77 2.8 CALM 0 4 0 2 1012.7 1012.6 0.0
24/02:00am 25.4 29.2 20.9 76 3.0 NNE 2 6 1 3 1012.9 1012.8 0.0
24/01:30am 25.6 28.7 21.1 76 3.0 NE 6 7 3 4 1013.1 1013.0 0.0
24/01:00am 25.5 29.1 20.5 74 3.3 NE 2 4 1 2 1013.5 1013.4 0.0
24/12:30am 25.6 28.4 20.4 73 3.4 NNE 6 9 3 5 1013.5 1013.4 0.0
24/12:00am 25.9 29.0 20.2 71 3.7 N 4 7 2 4 1014.0 1013.9 0.0
 
Date/Time
CST
Temp
°C
App
Temp
°C
Dew
Point
Rel
Hum
%
Delta-T
°C
Wind Press
QNH
hPa
Press
MSL
hPa
Rain
since 9 am
mm
Dir
 
Spd
km/h
Gust
km/h
Spd
kts
Gust
kts
23/11:30pm 26.1 28.5 20.0 69 4.0 NE 7 11 4 6 1014.2 1014.1 0.0
23/11:00pm 26.3 28.7 19.7 67 4.3 NNE 6 9 3 5 1014.2 1014.1 0.0
23/10:30pm 26.6 28.9 19.5 65 4.6 NNE 6 15 3 8 1014.1 1014.0 0.0
23/10:00pm 26.8 28.5 19.4 64 4.8 NNE 9 13 5 7 1013.7 1013.6 0.0
23/09:30pm 27.4 28.8 19.5 62 5.1 NNE 11 15 6 8 1013.3 1013.2 0.0
23/09:00pm 27.5 28.7 18.2 57 5.9 NNE 9 17 5 9 1012.8 1012.7 0.0
23/08:30pm 27.9 28.3 16.2 49 7.2 NNE 9 15 5 8 1012.0 1011.9 0.0
23/08:00pm 28.9 28.5 15.1 43 8.4 N 11 17 6 9 1011.5 1011.4 0.0
23/07:30pm 29.1 28.0 15.2 42 8.5 NNE 15 19 8 10 1011.2 1011.1 0.0
23/07:00pm 29.9 28.1 14.4 38 9.4 NNE 17 22 9 12 1010.7 1010.6 0.0
23/06:30pm 30.8 29.8 15.6 39 9.4 NNE 15 26 8 14 1010.2 1010.1 0.0
23/06:00pm 32.3 30.4 15.3 35 10.5 NNE 19 28 10 15 1009.5 1009.4 0.0
23/05:30pm 33.5 31.7 15.5 34 11.2 NNE 19 30 10 16 1009.1 1009.0 0.0
23/05:00pm 34.4 32.3 15.3 31 11.9 N 20 30 11 16 1008.5 1008.4 0.0
23/04:30pm 36.9 32.5 5.0 14 17.3 ENE 17 26 9 14 1008.5 1008.4 0.0
23/04:00pm 37.6 33.8 5.6 14 17.5 NE 15 24 8 13 1008.5 1008.4 0.0
23/03:30pm 37.9 33.1 4.7 13 18.0 E 19 26 10 14 1008.9 1008.8 0.0
23/03:00pm 38.3 34.7 5.0 13 18.2 E 13 33 7 18 1009.0 1008.9 0.0
23/02:30pm 37.6 33.9 4.5 13 17.8 E 13 24 7 13 1009.4 1009.3 0.0
23/02:00pm 36.9 33.1 4.0 13 17.5 E 13 22 7 12 1010.0 1009.9 0.0
23/01:30pm 36.4 32.9 3.6 13 17.3 ENE 11 24 6 13 1010.5 1010.4 0.0
23/01:00pm 37.3 31.9 4.3 13 17.7 E 22 32 12 17 1011.1 1011.0 0.0
23/12:30pm 36.3 33.0 8.2 18 15.9 ENE 15 26 8 14 1011.6 1011.5 0.0
23/12:00pm 34.9 31.9 9.3 21 14.6 E 15 26 8 14 1012.4 1012.3 0.0
23/11:30am 34.0 30.6 9.3 22 14.1 ENE 17 32 9 17 1012.9 1012.8 0.0
23/11:00am 33.9 29.9 10.5 24 13.6 E 22 35 12 19 1013.4 1013.3 0.0
23/10:30am 33.1 29.1 10.4 25 13.1 E 22 32 12 17 1013.8 1013.7 0.0
23/10:00am 32.3 30.2 12.5 30 11.8 NE 15 26 8 14 1014.1 1014.0 0.0
23/09:30am 30.3 32.1 18.4 49 7.7 E 6 15 3 8 1014.4 1014.3 0.0
23/09:00am 29.4 32.0 20.0 57 6.2 ESE 6 9 3 5 1014.8 1014.7 0.0
23/08:30am 28.2 31.6 21.0 65 4.8 ESE 4 9 2 5 1014.9 1014.8 0.0
23/08:00am 27.3 30.3 21.3 69 4.0 NE 7 11 4 6 1014.8 1014.7 0.0
23/07:30am 25.6 28.7 21.1 76 3.0 NE 6 7 3 4 1014.5 1014.4 0.0
23/07:00am 23.8 27.4 19.7 78 2.6 CALM 0 0 0 0 1014.1 1014.0 0.0
23/06:30am 23.2 26.4 20.5 85 1.8 NNE 4 4 2 2 1013.8 1013.7 0.0
23/06:00am 23.0 26.2 20.5 86 1.6 WNW 4 4 2 2 1013.5 1013.4 0.0
23/05:30am 21.9 25.2 19.1 84 1.8 CALM 0 0 0 0 1013.2 1013.1 0.0
23/05:00am 23.1 26.8 19.9 82 2.1 CALM 0 0 0 0 1013.0 1012.9 0.0
23/04:30am 23.0 26.6 19.8 82 2.1 CALM 0 0 0 0 1012.8 1012.7 0.0
23/04:00am 22.6 25.7 19.4 82 2.0 WNW 2 4 1 2 1012.7 1012.6 0.0
23/03:30am 23.7 27.2 20.4 82 2.1 WNW 2 6 1 3 1012.7 1012.6 0.0
23/03:00am 22.6 25.4 17.9 75 2.9 CALM 0 2 0 1 1012.8 1012.7 0.0
23/02:30am 23.9 27.6 20.0 79 2.5 CALM 0 0 0 0 1012.8 1012.7 0.0
23/02:00am 24.9 28.2 20.8 78 2.7 NE 4 7 2 4 1013.0 1012.9 0.0
23/01:30am 25.1 28.4 20.8 77 2.8 NNE 4 6 2 3 1013.1 1013.0 0.0
23/01:00am 24.9 27.8 19.9 74 3.2 N 4 6 2 3 1013.6 1013.5 0.0
23/12:30am 25.9 29.0 20.2 71 3.7 N 4 7 2 4 1014.0 1013.9 0.0
23/12:00am 26.2 29.2 20.1 69 4.0 NE 4 6 2 3 1014.3 1014.2 0.0
 
Date/Time
CST
Temp
°C
App
Temp
°C
Dew
Point
Rel
Hum
%
Delta-T
°C
Wind Press
QNH
hPa
Press
MSL
hPa
Rain
since 9 am
mm
Dir
 
Spd
km/h
Gust
km/h
Spd
kts
Gust
kts
22/11:30pm 26.1 29.4 20.0 69 4.0 NE 2 6 1 3 1014.3 1014.2 0.0
22/11:00pm 26.3 28.8 19.9 68 4.2 NE 6 7 3 4 1014.3 1014.2 0.0
22/10:30pm 26.3 29.1 19.7 67 4.3 NNE 4 7 2 4 1014.1 1014.0 0.0
22/10:00pm 26.9 29.2 19.5 64 4.8 NNE 6 7 3 4 1013.8 1013.7 0.0
22/09:30pm 27.1 28.6 18.9 61 5.3 NNE 9 13 5 7 1013.5 1013.4 0.0
22/09:00pm 27.7 28.6 18.4 57 5.9 NNE 11 13 6 7 1013.1 1013.0 0.0
22/08:30pm 28.2 28.5 18.0 54 6.5 NNE 13 20 7 11 1012.7 1012.6 0.0
22/08:00pm 28.8 28.6 17.7 51 7.0 NNE 15 20 8 11 1012.1 1012.0 0.0
22/07:30pm 29.1 29.0 17.0 48 7.6 NNE 13 20 7 11 1011.8 1011.7 0.0
22/07:00pm 29.7 30.1 18.2 50 7.4 NNE 13 20 7 11 1011.1 1011.0 0.0
22/06:30pm 30.8 29.9 18.2 47 8.1 NNE 20 30 11 16 1010.7 1010.6 0.0
22/06:00pm 31.8 31.2 18.4 45 8.7 NNE 19 26 10 14 1010.2 1010.1 0.0
22/05:30pm 32.9 32.0 18.3 42 9.5 NNE 20 28 11 15 1009.7 1009.6 0.0
22/05:00pm 34.4 33.0 18.0 37 10.6 N 22 35 12 19 1009.1 1009.0 0.0
22/04:30pm 35.8 34.8 15.5 29 12.8 NNE 15 22 8 12 1008.8 1008.7 0.0
22/04:00pm 37.6 35.5 8.4 17 16.7 E 9 19 5 10 1008.8 1008.7 0.0
22/03:30pm 37.5 35.0 8.3 17 16.7 ESE 11 20 6 11 1009.1 1009.0 0.0
22/03:00pm 37.0 34.0 7.9 17 16.5 SE 13 24 7 13 1009.5 1009.4 0.0
22/02:30pm 37.7 35.9 9.3 18 16.5 ESE 9 28 5 15 1009.9 1009.8 0.0
22/02:00pm 37.3 34.8 9.8 19 16.0 SSE 13 24 7 13 1010.2 1010.1 0.0
22/01:30pm 36.8 35.2 10.2 20 15.6 ESE 9 28 5 15 1010.9 1010.8 0.0
22/01:00pm 36.2 33.0 11.1 22 14.8 E 19 26 10 14 1011.5 1011.4 0.0
22/12:30pm 35.5 33.6 13.1 26 13.6 SE 15 24 8 13 1012.3 1012.2 0.0
22/12:00pm 35.8 33.8 13.9 27 13.5 E 17 26 9 14 1012.9 1012.8 0.0
22/11:30am 34.3 33.2 14.2 29 12.3 ESE 13 24 7 13 1013.6 1013.5 0.0

Other Formats:

Comma delimited format used in spreadsheet applications
http://www.bom.gov.au/fwo/IDD60801/IDD60801.94110.axf

JavaScript Object Notation format (JSON) in row-major order
http://www.bom.gov.au/fwo/IDD60801/IDD60801.94110.json